createdAt,value
2019-04-07T00:00:27.762Z,24.87
2019-04-07T00:02:56.847Z,24.83
2019-04-07T00:05:25.645Z,23.53
2019-04-07T00:07:56.070Z,22.07
2019-04-07T00:10:25.951Z,21.37
2019-04-07T00:12:54.795Z,24.57
2019-04-07T00:15:23.478Z,23.13
2019-04-07T00:17:52.043Z,23.60
2019-04-07T00:20:20.862Z,24.23
2019-04-07T00:22:49.919Z,24.37
2019-04-07T00:25:19.287Z,24.47
2019-04-07T00:27:47.793Z,23.90
2019-04-07T00:30:16.900Z,22.77
2019-04-07T00:32:46.653Z,22.57
2019-04-07T00:35:23.411Z,24.10
2019-04-07T00:37:46.096Z,23.93
2019-04-07T00:40:15.493Z,24.90
2019-04-07T00:42:44.407Z,24.63
2019-04-07T00:45:14.095Z,24.40
2019-04-07T00:47:43.021Z,25.07
2019-04-07T00:50:12.098Z,25.30
2019-04-07T00:52:40.775Z,25.80
2019-04-07T00:55:09.924Z,24.27
2019-04-07T00:57:38.474Z,23.73
2019-04-07T01:00:10.593Z,24.80
2019-04-07T01:02:39.841Z,25.87
2019-04-07T01:05:08.613Z,25.40
2019-04-07T01:07:37.131Z,24.90
2019-04-07T01:10:07.219Z,25.40
2019-04-07T01:12:35.841Z,26.13
2019-04-07T01:15:07.740Z,25.20
2019-04-07T01:17:37.003Z,26.50
2019-04-07T01:20:08.882Z,26.50
2019-04-07T01:22:37.441Z,25.97
2019-04-07T01:25:07.142Z,24.90
2019-04-07T01:27:35.832Z,26.73
2019-04-07T01:30:06.262Z,25.80
2019-04-07T01:32:35.601Z,26.10
2019-04-07T01:35:04.996Z,25.37
2019-04-07T01:37:34.060Z,26.90
2019-04-07T01:40:03.133Z,24.47
2019-04-07T01:42:49.971Z,25.20
2019-04-07T01:45:23.698Z,25.80
2019-04-07T01:48:10.312Z,24.07
2019-04-07T01:50:55.185Z,25.80
2019-04-07T01:53:28.246Z,23.47
2019-04-07T01:56:01.816Z,27.50
2019-04-07T01:58:35.428Z,26.40
2019-04-07T02:01:18.324Z,25.97
2019-04-07T02:03:49.528Z,27.03
2019-04-07T02:06:25.705Z,26.47
2019-04-07T02:08:58.865Z,27.90
2019-04-07T02:11:32.573Z,23.73
2019-04-07T02:14:21.286Z,25.87
2019-04-07T02:16:51.561Z,27.00
2019-04-07T02:19:30.768Z,23.47
2019-04-07T02:22:04.640Z,24.20
2019-04-07T02:24:34.737Z,24.90
2019-04-07T02:27:21.917Z,25.63
2019-04-07T02:30:07.837Z,25.80
2019-04-07T02:32:47.074Z,26.70
2019-04-07T02:35:17.144Z,25.03
2019-04-07T02:37:48.161Z,25.03
2019-04-07T02:40:28.447Z,25.97
2019-04-07T02:43:05.233Z,25.63
2019-04-07T02:45:50.751Z,24.20
2019-04-07T02:48:39.522Z,26.60
2019-04-07T02:51:11.478Z,24.90
2019-04-07T02:53:41.540Z,26.10
2019-04-07T02:56:11.845Z,25.37
2019-04-07T02:58:59.399Z,24.70
2019-04-07T03:01:33.014Z,27.33
2019-04-07T03:04:20.446Z,26.83
2019-04-07T03:07:00.563Z,26.63
2019-04-07T03:09:36.755Z,26.07
2019-04-07T03:12:10.395Z,25.63
2019-04-07T03:14:41.291Z,24.90
2019-04-07T03:17:14.025Z,26.40
2019-04-07T03:19:56.225Z,24.13
2019-04-07T03:22:43.761Z,24.40
2019-04-07T03:25:15.619Z,24.57
2019-04-07T03:27:52.715Z,24.60
2019-04-07T03:30:29.968Z,23.77
2019-04-07T03:33:02.800Z,23.73
2019-04-07T03:35:53.150Z,23.77
2019-04-07T03:38:22.579Z,24.87
2019-04-07T03:40:52.637Z,22.57
2019-04-07T03:43:23.761Z,22.80
2019-04-07T03:45:55.001Z,23.60
2019-04-07T03:48:37.999Z,24.07
2019-04-07T03:51:20.394Z,23.90
2019-04-07T03:53:54.070Z,22.77
2019-04-07T03:56:25.405Z,24.03
2019-04-07T03:59:01.100Z,23.77
2019-04-07T04:01:35.421Z,23.10
2019-04-07T04:04:07.714Z,23.27
2019-04-07T04:06:47.021Z,22.83
2019-04-07T04:09:17.603Z,21.37
2019-04-07T04:11:47.827Z,21.53
2019-04-07T04:14:26.783Z,21.37
2019-04-07T04:16:56.176Z,21.20
2019-04-07T04:19:26.156Z,20.93
2019-04-07T04:21:55.621Z,19.07
2019-04-07T04:24:24.073Z,19.47
2019-04-07T04:26:53.641Z,20.30
2019-04-07T04:29:23.369Z,20.47
2019-04-07T04:31:53.075Z,18.70
2019-04-07T04:34:21.502Z,18.60
2019-04-07T04:36:50.272Z,19.30
2019-04-07T04:39:20.961Z,19.03
2019-04-07T04:41:49.255Z,19.03
2019-04-07T04:44:18.642Z,19.03
2019-04-07T04:46:48.559Z,20.50
2019-04-07T04:49:17.138Z,18.87
2019-04-07T04:51:45.862Z,19.07
2019-04-07T04:54:14.523Z,20.00
2019-04-07T04:56:44.892Z,19.43
2019-04-07T04:59:13.658Z,20.43
2019-04-07T05:01:42.270Z,19.20
2019-04-07T05:04:11.490Z,19.80
2019-04-07T05:06:41.300Z,19.50
2019-04-07T05:09:09.873Z,18.10
2019-04-07T05:11:38.654Z,19.77
2019-04-07T05:14:07.179Z,19.33
2019-04-07T05:16:35.662Z,20.10
2019-04-07T05:19:04.482Z,18.27
2019-04-07T05:21:33.918Z,18.43
2019-04-07T05:24:02.818Z,18.03
2019-04-07T05:26:31.254Z,20.13
2019-04-07T05:29:00.430Z,19.70
2019-04-07T05:31:30.462Z,17.77
2019-04-07T05:34:00.270Z,18.73
2019-04-07T05:36:28.884Z,16.73
2019-04-07T05:38:57.483Z,18.20
2019-04-07T05:41:26.310Z,18.40
2019-04-07T05:43:55.662Z,19.80
2019-04-07T05:46:24.997Z,19.60
2019-04-07T05:48:53.558Z,20.00
2019-04-07T05:51:22.886Z,18.60
2019-04-07T05:53:52.656Z,17.53
2019-04-07T05:56:25.973Z,18.97
2019-04-07T05:58:52.746Z,17.23
2019-04-07T06:01:23.677Z,17.70
2019-04-07T06:03:52.235Z,17.83
2019-04-07T06:06:21.522Z,15.90
2019-04-07T06:08:50.641Z,17.27
2019-04-07T06:11:19.511Z,17.80
2019-04-07T06:13:48.723Z,17.00
2019-04-07T06:16:19.951Z,15.80
2019-04-07T06:18:48.223Z,16.37
2019-04-07T06:21:17.356Z,16.80
2019-04-07T06:23:46.117Z,17.20
2019-04-07T06:26:15.088Z,17.13
2019-04-07T06:28:46.680Z,15.30
2019-04-07T06:31:14.146Z,17.13
2019-04-07T06:33:42.992Z,16.27
2019-04-07T06:36:11.606Z,17.70
2019-04-07T06:38:43.634Z,14.80
2019-04-07T06:41:11.437Z,16.57
2019-04-07T06:43:40.429Z,15.50
2019-04-07T06:46:24.625Z,16.00
2019-04-07T06:48:55.121Z,14.93
2019-04-07T06:51:29.186Z,15.03
2019-04-07T06:54:18.547Z,15.60
2019-04-07T06:57:04.345Z,14.63
2019-04-07T06:59:33.991Z,13.40
2019-04-07T07:02:12.086Z,14.07
2019-04-07T07:04:48.619Z,16.20
2019-04-07T07:07:25.326Z,14.43
2019-04-07T07:10:06.328Z,14.20
2019-04-07T07:12:39.133Z,13.87
2019-04-07T07:15:09.138Z,13.40
2019-04-07T07:17:52.668Z,11.87
2019-04-07T07:20:32.789Z,13.27
2019-04-07T07:23:05.958Z,11.83
2019-04-07T07:25:34.910Z,12.10
2019-04-07T07:28:04.331Z,12.57
2019-04-07T07:30:32.955Z,11.77
2019-04-07T07:33:01.954Z,13.33
2019-04-07T07:35:30.505Z,12.37
2019-04-07T07:37:59.757Z,12.70
2019-04-07T07:40:28.656Z,13.70
2019-04-07T07:42:59.137Z,12.67
2019-04-07T07:45:28.338Z,12.33
2019-04-07T07:47:56.769Z,13.23
2019-04-07T07:50:26.608Z,12.80
2019-04-07T07:52:56.079Z,13.20
2019-04-07T07:55:25.283Z,12.73
2019-04-07T07:57:56.461Z,11.90
2019-04-07T08:00:26.571Z,11.93
2019-04-07T08:02:55.831Z,11.33
2019-04-07T08:05:29.905Z,12.10
2019-04-07T08:07:56.145Z,10.70
2019-04-07T08:10:26.639Z,9.93
2019-04-07T08:12:56.308Z,8.83
2019-04-07T08:15:29.678Z,9.17
2019-04-07T08:17:55.192Z,10.10
2019-04-07T08:20:24.227Z,8.90
2019-04-07T08:22:53.063Z,8.90
2019-04-07T08:25:23.687Z,8.40
2019-04-07T08:27:51.691Z,9.10
2019-04-07T08:30:20.262Z,8.60
2019-04-07T08:32:48.841Z,8.67
2019-04-07T08:35:17.663Z,9.00
2019-04-07T08:37:48.161Z,8.67
2019-04-07T08:40:16.694Z,8.87
2019-04-07T08:42:48.269Z,9.80
2019-04-07T08:45:15.587Z,8.90
2019-04-07T08:47:47.340Z,9.80
2019-04-07T08:50:15.175Z,9.10
2019-04-07T08:52:43.917Z,9.20
2019-04-07T08:55:12.904Z,9.87
2019-04-07T08:57:42.319Z,7.83
2019-04-07T09:00:14.936Z,9.17
2019-04-07T09:02:43.814Z,8.37
2019-04-07T09:05:12.952Z,7.50
2019-04-07T09:07:42.610Z,7.80
2019-04-07T09:10:17.043Z,7.50
2019-04-07T09:12:44.069Z,7.07
2019-04-07T09:15:14.288Z,8.53
2019-04-07T09:17:48.713Z,7.73
2019-04-07T09:20:20.023Z,8.00
2019-04-07T09:22:59.374Z,7.50
2019-04-07T09:25:31.837Z,7.03
2019-04-07T09:28:04.126Z,7.43
2019-04-07T09:30:40.044Z,7.43
2019-04-07T09:33:11.449Z,7.37
2019-04-07T09:35:44.328Z,8.73
2019-04-07T09:38:15.299Z,7.10
2019-04-07T09:41:01.671Z,7.47
2019-04-07T09:43:49.427Z,7.20
2019-04-07T09:46:33.250Z,7.57
2019-04-07T09:49:05.956Z,7.07
2019-04-07T09:51:41.344Z,7.40
2019-04-07T09:54:11.108Z,6.10
2019-04-07T09:56:45.048Z,6.87
2019-04-07T09:59:30.696Z,6.30
2019-04-07T10:02:14.545Z,6.50
2019-04-07T10:04:45.151Z,6.10
2019-04-07T10:07:34.861Z,6.90
2019-04-07T10:10:14.364Z,6.80
2019-04-07T10:12:43.570Z,6.70
2019-04-07T10:15:16.652Z,5.93
2019-04-07T10:17:47.088Z,5.50
2019-04-07T10:20:32.601Z,6.97
2019-04-07T10:23:03.048Z,6.20
2019-04-07T10:25:33.432Z,6.27
2019-04-07T10:28:19.904Z,7.40
2019-04-07T10:30:50.019Z,7.30
2019-04-07T10:33:23.745Z,7.70
2019-04-07T10:36:12.050Z,8.37
2019-04-07T10:38:58.664Z,7.57
2019-04-07T10:41:45.389Z,6.93
2019-04-07T10:44:19.374Z,7.83
2019-04-07T10:46:50.429Z,8.90
2019-04-07T10:49:21.369Z,8.00
2019-04-07T10:51:52.276Z,7.80
2019-04-07T10:54:38.198Z,7.40
2019-04-07T10:57:18.818Z,7.87
2019-04-07T11:00:05.802Z,7.00
2019-04-07T11:02:54.867Z,7.77
2019-04-07T11:05:37.070Z,6.83
2019-04-07T11:08:10.529Z,7.57
2019-04-07T11:10:44.199Z,8.07
2019-04-07T11:13:18.503Z,7.20
2019-04-07T11:15:49.785Z,7.60
2019-04-07T11:18:23.054Z,7.63
2019-04-07T11:20:54.443Z,5.87
2019-04-07T11:23:31.992Z,6.60
2019-04-07T11:26:02.644Z,5.60
2019-04-07T11:28:33.790Z,5.77
2019-04-07T11:31:04.323Z,6.03
2019-04-07T11:33:35.072Z,6.10
2019-04-07T11:36:24.487Z,7.50
2019-04-07T11:38:55.928Z,6.67
2019-04-07T11:41:28.873Z,5.37
2019-04-07T11:44:00.681Z,5.77
2019-04-07T11:46:30.805Z,5.30
2019-04-07T11:49:02.684Z,6.00
2019-04-07T11:51:42.463Z,5.60
2019-04-07T11:54:14.278Z,5.50
2019-04-07T11:56:47.698Z,4.97
2019-04-07T11:59:23.822Z,5.10
2019-04-07T12:02:04.570Z,4.17
2019-04-07T12:04:51.761Z,4.93
2019-04-07T12:07:25.336Z,4.70
2019-04-07T12:09:56.317Z,3.83
2019-04-07T12:12:27.118Z,3.13
2019-04-07T12:14:57.808Z,3.27
2019-04-07T12:17:28.753Z,4.20
2019-04-07T12:19:59.175Z,3.50
2019-04-07T12:22:47.994Z,2.80
2019-04-07T12:25:17.737Z,3.20
2019-04-07T12:28:05.396Z,3.03
2019-04-07T12:30:51.274Z,2.93
2019-04-07T12:33:23.203Z,3.30
2019-04-07T12:36:00.869Z,3.27
2019-04-07T12:38:43.257Z,2.60
2019-04-07T12:41:19.099Z,2.50
2019-04-07T12:44:01.651Z,3.10
2019-04-07T12:46:34.974Z,2.57
2019-04-07T12:49:07.750Z,2.47
2019-04-07T12:51:37.492Z,3.37
2019-04-07T12:54:12.210Z,4.23
2019-04-07T12:56:52.391Z,2.70
2019-04-07T12:59:39.224Z,2.23
2019-04-07T13:02:10.126Z,2.20
2019-04-07T13:04:41.789Z,1.77
2019-04-07T13:07:17.076Z,2.37
2019-04-07T13:09:56.318Z,2.70
2019-04-07T13:12:30.466Z,3.40
2019-04-07T13:15:19.467Z,2.30
2019-04-07T13:18:08.560Z,1.90
2019-04-07T13:20:40.772Z,1.97
2019-04-07T13:23:12.384Z,2.00
2019-04-07T13:25:43.543Z,2.00
2019-04-07T13:28:15.246Z,1.90
2019-04-07T13:30:59.053Z,2.03
2019-04-07T13:33:39.471Z,2.00
2019-04-07T13:36:10.640Z,2.03
2019-04-07T13:38:44.916Z,2.00
2019-04-07T13:41:20.382Z,2.30
2019-04-07T13:44:07.113Z,1.80
2019-04-07T13:46:37.957Z,1.90
2019-04-07T13:49:18.095Z,1.67
2019-04-07T13:51:49.341Z,2.33
2019-04-07T13:54:25.296Z,2.90
2019-04-07T13:56:56.414Z,3.10
2019-04-07T13:59:45.269Z,2.20
2019-04-07T14:02:17.433Z,2.63
2019-04-07T14:04:48.903Z,2.77
2019-04-07T14:07:27.411Z,2.67
2019-04-07T14:10:03.077Z,3.03
2019-04-07T14:12:34.510Z,2.03
2019-04-07T14:15:09.210Z,2.90
2019-04-07T14:17:50.368Z,2.23
2019-04-07T14:20:37.527Z,2.17
2019-04-07T14:23:24.173Z,2.00
2019-04-07T14:26:08.011Z,1.70
2019-04-07T14:28:40.124Z,2.27
2019-04-07T14:31:20.768Z,1.83
2019-04-07T14:33:58.861Z,2.10
2019-04-07T14:36:32.807Z,1.73
2019-04-07T14:39:12.907Z,1.50
2019-04-07T14:41:43.809Z,2.30
2019-04-07T14:44:18.268Z,2.13
2019-04-07T14:46:50.105Z,2.27
2019-04-07T14:49:22.807Z,2.20
2019-04-07T14:52:03.713Z,2.30
2019-04-07T14:54:40.839Z,2.07
2019-04-07T14:57:12.717Z,2.20
2019-04-07T14:59:56.169Z,2.13
2019-04-07T15:02:25.518Z,1.80
2019-04-07T15:05:04.106Z,2.30
2019-04-07T15:07:47.188Z,2.00
2019-04-07T15:10:20.142Z,1.87
2019-04-07T15:12:51.289Z,2.27
2019-04-07T15:15:21.459Z,2.03
2019-04-07T15:17:51.210Z,2.20
2019-04-07T15:20:20.418Z,1.73
2019-04-07T15:22:49.879Z,2.17
2019-04-07T15:25:19.493Z,1.90
2019-04-07T15:27:48.975Z,2.33
2019-04-07T15:30:20.187Z,1.83
2019-04-07T15:32:50.386Z,1.80
2019-04-07T15:35:20.100Z,1.83
2019-04-07T15:37:51.562Z,1.60
2019-04-07T15:40:21.419Z,1.90
2019-04-07T15:42:51.223Z,1.87
2019-04-07T15:45:21.575Z,1.70
2019-04-07T15:47:53.830Z,1.50
2019-04-07T15:50:22.651Z,2.20
2019-04-07T15:52:52.706Z,2.37
2019-04-07T15:55:26.370Z,2.53
2019-04-07T15:57:57.097Z,1.90
2019-04-07T16:00:25.774Z,2.57
2019-04-07T16:02:55.496Z,2.13
2019-04-07T16:05:24.513Z,2.80
2019-04-07T16:07:55.425Z,2.23
2019-04-07T16:10:26.161Z,2.53
2019-04-07T16:12:59.019Z,1.97
2019-04-07T16:15:27.332Z,1.90
2019-04-07T16:17:56.907Z,2.30
2019-04-07T16:20:32.329Z,2.07
2019-04-07T16:22:59.617Z,2.00
2019-04-07T16:25:32.215Z,2.10
2019-04-07T16:28:03.508Z,2.17
2019-04-07T16:30:34.041Z,2.40
2019-04-07T16:33:05.581Z,2.40
2019-04-07T16:35:36.499Z,2.20
2019-04-07T16:38:05.990Z,1.90
2019-04-07T16:40:35.934Z,1.90
2019-04-07T16:43:13.371Z,1.60
2019-04-07T16:45:36.719Z,1.80
2019-04-07T16:48:08.058Z,2.37
2019-04-07T16:50:39.858Z,2.30
2019-04-07T16:53:09.500Z,2.30
2019-04-07T16:55:41.575Z,2.30
2019-04-07T16:58:14.257Z,2.17
2019-04-07T17:00:43.993Z,2.13
2019-04-07T17:03:15.309Z,2.10
2019-04-07T17:05:46.317Z,2.60
2019-04-07T17:08:19.356Z,2.67
2019-04-07T17:10:48.630Z,2.63
2019-04-07T17:13:24.797Z,2.47
2019-04-07T17:15:51.577Z,2.37
2019-04-07T17:18:38.876Z,2.77
2019-04-07T17:21:15.092Z,2.40
2019-04-07T17:23:44.265Z,2.60
2019-04-07T17:26:13.904Z,2.30
2019-04-07T17:28:45.168Z,2.70
2019-04-07T17:31:16.287Z,2.40
2019-04-07T17:33:46.933Z,2.50
2019-04-07T17:36:20.924Z,3.43
2019-04-07T17:39:09.616Z,2.30
2019-04-07T17:41:39.270Z,2.60
2019-04-07T17:44:18.030Z,2.60
2019-04-07T17:46:57.899Z,2.70
2019-04-07T17:49:34.658Z,2.63
2019-04-07T17:52:22.830Z,2.67
2019-04-07T17:55:10.617Z,2.50
2019-04-07T17:57:50.780Z,3.27
2019-04-07T18:00:30.162Z,3.07
2019-04-07T18:03:06.101Z,3.17
2019-04-07T18:05:40.678Z,2.80
2019-04-07T18:08:25.134Z,3.30
2019-04-07T18:11:02.351Z,2.80
2019-04-07T18:13:49.088Z,2.83
2019-04-07T18:16:30.672Z,3.40
2019-04-07T18:19:04.758Z,3.20
2019-04-07T18:21:52.411Z,3.10
2019-04-07T18:24:31.703Z,2.90
2019-04-07T18:27:03.133Z,3.03
2019-04-07T18:29:38.387Z,3.77
2019-04-07T18:32:13.185Z,3.40
2019-04-07T18:34:45.036Z,3.40
2019-04-07T18:37:18.851Z,4.13
2019-04-07T18:40:00.249Z,3.10
2019-04-07T18:42:45.560Z,3.53
2019-04-07T18:45:19.691Z,3.40
2019-04-07T18:47:58.071Z,3.70
2019-04-07T18:50:28.964Z,4.17
2019-04-07T18:53:12.445Z,4.27
2019-04-07T18:56:00.108Z,3.90
2019-04-07T18:58:36.812Z,3.63
2019-04-07T19:01:24.406Z,3.83
2019-04-07T19:04:02.479Z,4.10
2019-04-07T19:06:36.938Z,3.87
2019-04-07T19:09:14.194Z,4.30
2019-04-07T19:12:02.806Z,3.73
2019-04-07T19:14:40.226Z,3.37
2019-04-07T19:16:59.704Z,4.33
2019-04-07T19:19:49.237Z,3.73
2019-04-07T19:22:23.222Z,3.80
2019-04-07T19:24:54.736Z,5.07
2019-04-07T19:27:31.011Z,4.27
2019-04-07T19:30:07.353Z,4.43
2019-04-07T19:32:38.887Z,4.90
2019-04-07T19:35:11.516Z,4.70
2019-04-07T19:38:01.149Z,4.17
2019-04-07T19:40:51.068Z,4.30
2019-04-07T19:43:25.345Z,4.63
2019-04-07T19:46:09.240Z,4.70
2019-04-07T19:48:43.106Z,4.13
2019-04-07T19:51:22.488Z,4.80
2019-04-07T19:54:04.408Z,4.57
2019-04-07T19:56:35.792Z,4.30
2019-04-07T19:59:12.837Z,5.17
2019-04-07T20:02:02.248Z,4.57
2019-04-07T20:04:34.391Z,4.30
2019-04-07T20:07:13.733Z,5.27
2019-04-07T20:09:50.956Z,5.07
2019-04-07T20:12:22.354Z,4.50
2019-04-07T20:15:06.942Z,5.20
2019-04-07T20:17:43.993Z,5.90
2019-04-07T20:20:21.754Z,5.20
2019-04-07T20:23:02.196Z,5.00
2019-04-07T20:25:46.227Z,4.10
2019-04-07T20:28:15.324Z,5.07
2019-04-07T20:30:51.164Z,5.37
2019-04-07T20:33:38.646Z,5.07
2019-04-07T20:36:23.508Z,5.80
2019-04-07T20:38:52.090Z,5.70
2019-04-07T20:41:29.464Z,5.90
2019-04-07T20:44:18.868Z,7.60
2019-04-07T20:47:07.808Z,8.07
2019-04-07T20:49:47.774Z,18.10
2019-04-07T20:52:20.106Z,25.07
2019-04-07T20:54:51.768Z,11.73
2019-04-07T20:57:39.095Z,9.07
2019-04-07T21:00:26.512Z,7.80
2019-04-07T21:03:17.168Z,8.00
2019-04-07T21:05:44.168Z,8.53
2019-04-07T21:08:24.099Z,8.57
2019-04-07T21:11:01.496Z,9.60
2019-04-07T21:13:50.392Z,9.07
2019-04-07T21:16:33.847Z,10.43
2019-04-07T21:19:07.756Z,10.23
2019-04-07T21:21:49.890Z,9.80
2019-04-07T21:24:27.210Z,12.10
2019-04-07T21:27:16.377Z,12.80
2019-04-07T21:30:00.700Z,12.87
2019-04-07T21:32:31.591Z,13.53
2019-04-07T21:35:09.265Z,15.10
2019-04-07T21:37:40.870Z,15.73
2019-04-07T21:40:18.703Z,15.50
2019-04-07T21:43:02.661Z,14.50
2019-04-07T21:45:52.815Z,14.60
2019-04-07T21:48:30.648Z,16.60
2019-04-07T21:51:08.606Z,17.17
2019-04-07T21:54:02.224Z,18.10
2019-04-07T21:56:48.867Z,18.80
2019-04-07T21:59:26.617Z,17.83
2019-04-07T22:02:11.838Z,18.90
2019-04-07T22:04:56.647Z,17.80
2019-04-07T22:07:27.660Z,18.77
2019-04-07T22:10:03.178Z,18.57
2019-04-07T22:12:33.919Z,19.70
2019-04-07T22:15:04.499Z,20.40
2019-04-07T22:17:36.636Z,19.77
2019-04-07T22:20:08.355Z,19.70
2019-04-07T22:22:38.892Z,19.17
2019-04-07T22:25:09.760Z,18.27
2019-04-07T22:27:39.790Z,20.00
2019-04-07T22:30:11.728Z,20.33
2019-04-07T22:32:41.144Z,19.90
2019-04-07T22:35:11.432Z,20.33
2019-04-07T22:37:41.819Z,20.70
2019-04-07T22:40:15.155Z,21.67
2019-04-07T22:42:47.447Z,20.97
2019-04-07T22:45:16.642Z,18.30
2019-04-07T22:47:46.655Z,20.33
2019-04-07T22:50:17.026Z,19.57
2019-04-07T22:52:49.060Z,19.77
2019-04-07T22:55:18.395Z,22.50
2019-04-07T22:57:49.509Z,22.63
2019-04-07T23:00:21.314Z,21.37
2019-04-07T23:02:50.910Z,22.97
2019-04-07T23:05:21.024Z,20.37
2019-04-07T23:07:50.442Z,21.67
2019-04-07T23:10:20.066Z,21.90
2019-04-07T23:12:50.980Z,21.40
2019-04-07T23:15:20.769Z,20.30
2019-04-07T23:17:52.260Z,22.47
2019-04-07T23:20:23.562Z,20.33
2019-04-07T23:22:53.008Z,20.60
2019-04-07T23:25:23.013Z,19.97
2019-04-07T23:27:52.870Z,18.70
2019-04-07T23:30:24.368Z,21.10
2019-04-07T23:32:57.829Z,23.00
2019-04-07T23:35:28.762Z,23.73
2019-04-07T23:37:59.432Z,24.20
2019-04-07T23:40:29.931Z,25.23
2019-04-07T23:42:58.820Z,26.30
2019-04-07T23:45:29.031Z,23.40
2019-04-07T23:47:59.935Z,24.57
2019-04-07T23:50:30.384Z,25.20
2019-04-07T23:53:03.548Z,26.70
2019-04-07T23:55:32.841Z,25.50
2019-04-07T23:58:02.792Z,27.13
